Sarfaq Ittuk — OWDD — position and weather

sailwx.info

Track history (hours):
 
Tides and Currents Weather Stations Pressure Air Temp Water Temp Dewpoint Dewpoint Depression Visibility Wind Speed Wind Dir Waves Ship Positions

Sarfaq Ittuk

Last reported at 2018-Jun-22 07:27 UTC. Time now 2018-Jun-22 07:42 UTC.
Position N 63°55' W 051°33'.

Length 73 m; beam 11.1 m; draft 3.7 m.

Type: Passenger vessel. MMSI: 331000499.

Date/timePositionNaut miles runAvg speedWind from/ knotsBaromVisibWave heightAir tempDewpointWater temp
2018-Jun-22 07:27N 63°55' W 051°33'4 9.3
2018-Jun-22 07:00N 63°51' W 051°34'5 9.2
2018-Jun-22 06:30N 63°46' W 051°35'  
2018-Jun-19 14:42N 63°29' W 051°33'312.3
2018-Jun-19 14:29N 63°31' W 051°36'1312.0
2018-Jun-19 13:25N 63°44' W 051°36'512.3
2018-Jun-19 13:01N 63°49' W 051°35'612.3
2018-Jun-19 12:29N 63°55' W 051°33'611.9
2018-Jun-19 12:00N 63°60' W 051°41'611.2
2018-Jun-19 11:30N 64°06' W 051°39'510.1
2018-Jun-19 11:00N 64°10' W 051°43'0 0.0
2018-Jun-19 10:30N 64°10' W 051°43'0 0.0
2018-Jun-19 10:00N 64°10' W 051°43'0 0.0
2018-Jun-19 09:30N 64°10' W 051°43'0 0.0
2018-Jun-19 09:00N 64°10' W 051°43'2 3.8
2018-Jun-19 08:30N 64°09' W 051°46'5 9.2
2018-Jun-19 08:00N 64°07' W 051°56'5 9.7
2018-Jun-19 07:30N 64°04' W 052°05'4 8.5
2018-Jun-19 07:00N 64°06' W 052°14'612.1
2018-Jun-19 06:30N 64°11' W 052°22'612.7
2018-Jun-19 06:00N 64°17' W 052°26'612.8
2018-Jun-19 05:30N 64°23' W 052°30'612.8
2018-Jun-19 05:01N 64°30' W 052°33'612.9
2018-Jun-19 04:30N 64°36' W 052°36'612.8
2018-Jun-19 04:00N 64°42' W 052°38'612.8
2018-Jun-19 03:30N 64°49' W 052°41'612.7
2018-Jun-19 03:00N 64°55' W 052°44'612.7
2018-Jun-19 02:30N 65°01' W 052°47'612.7
2018-Jun-19 02:00N 65°07' W 052°50'612.6
2018-Jun-19 01:30N 65°14' W 052°51'612.7
2018-Jun-19 01:00N 65°20' W 052°51'5 9.9
2018-Jun-19 00:30N 65°25' W 052°54'0 0.0
2018-Jun-19 00:00N 65°25' W 052°54'0 0.0
2018-Jun-18 23:30N 65°25' W 052°54'3 5.9
2018-Jun-18 23:00N 65°27' W 052°52'612.8
2018-Jun-18 22:30N 65°34' W 052°50'1410.1
2018-Jun-18 21:09N 65°40' W 053°20'212.1
2018-Jun-18 21:00N 65°42' W 053°20'12 5.6
2018-Jun-18 18:56N 65°52' W 053°32'1312.4
2018-Jun-18 17:54N 66°03' W 053°48'14 0.3
2018-Jun-16 14:03N 65°52' W 053°29'5 5.8
2018-Jun-16 13:09N 65°49' W 053°19'16 8.5
2018-Jun-16 11:19N 65°39' W 052°50'14 6.7
2018-Jun-16 09:14N 65°25' W 052°54'11 5.8
2018-Jun-16 07:24N 65°14' W 052°51'4 9.1
2018-Jun-16 06:58N 65°10' W 052°51'510.2
2018-Jun-16 06:30N 65°06' W 052°49'510.2
2018-Jun-16 06:00N 65°01' W 052°47'510.2
2018-Jun-16 05:30N 64°56' W 052°45'510.5
2018-Jun-16 05:00N 64°50' W 052°42'510.3
2018-Jun-16 04:30N 64°45' W 052°40'5 9.7
2018-Jun-16 04:00N 64°41' W 052°38'5 9.7
2018-Jun-16 03:30N 64°36' W 052°36'5 9.9
2018-Jun-16 03:00N 64°31' W 052°34'510.2
2018-Jun-16 02:30N 64°26' W 052°31'510.9
2018-Jun-16 02:00N 64°21' W 052°28'510.9
2018-Jun-16 01:30N 64°15' W 052°25'611.0
2018-Jun-16 01:00N 64°10' W 052°22'611.2
2018-Jun-16 00:30N 64°06' W 052°14'4 8.8
2018-Jun-16 00:00N 64°05' W 052°04'611.5
2018-Jun-15 23:30N 64°08' W 051°52'5 9.5
2018-Jun-15 23:00N 64°10' W 051°43'0 0.0
2018-Jun-15 22:25N 64°10' W 051°43'0 0.0
2018-Jun-15 22:00N 64°10' W 051°43'0 0.0
2018-Jun-15 21:30N 64°10' W 051°43'0 0.0
2018-Jun-15 21:00N 64°10' W 051°43'0 0.0
2018-Jun-15 20:30N 64°10' W 051°43'0 0.0
2018-Jun-15 20:00N 64°10' W 051°43'0 0.0
2018-Jun-15 19:30N 64°10' W 051°43'0 0.0
2018-Jun-15 19:00N 64°10' W 051°43'0 0.0
2018-Jun-15 18:30N 64°10' W 051°43'0 0.0
2018-Jun-15 18:00N 64°10' W 051°43'0 0.0
2018-Jun-15 17:30N 64°10' W 051°43'0 0.0
2018-Jun-15 17:01N 64°10' W 051°43'0 0.0
2018-Jun-15 16:30N 64°10' W 051°43'0 0.0
2018-Jun-15 16:00N 64°10' W 051°43'0 0.0
2018-Jun-15 15:30N 64°10' W 051°43'0 0.0
2018-Jun-15 15:00N 64°10' W 051°43'0 0.0
2018-Jun-15 14:30N 64°10' W 051°43'0 0.0
2018-Jun-15 14:00N 64°10' W 051°43'0 0.0
2018-Jun-15 13:30N 64°10' W 051°43'0 0.0
2018-Jun-15 13:00N 64°10' W 051°43'0 0.0
2018-Jun-15 12:30N 64°10' W 051°43'0 0.0
2018-Jun-15 12:00N 64°10' W 051°43'0 0.0
2018-Jun-15 11:30N 64°10' W 051°43'0 0.0
2018-Jun-15 11:00N 64°10' W 051°43'0 0.0
2018-Jun-15 10:31N 64°10' W 051°43'0 0.0
2018-Jun-15 10:00N 64°10' W 051°43'0 0.0
2018-Jun-15 09:30N 64°10' W 051°43'2 4.2
2018-Jun-15 09:00N 64°08' W 051°41'5 9.3
2018-Jun-15 08:30N 64°04' W 051°38'5 9.8
2018-Jun-15 08:00N 63°59' W 051°40'510.2
2018-Jun-15 07:29N 63°55' W 051°33'5 9.8
2018-Jun-15 07:00N 63°50' W 051°35'5 9.8
2018-Jun-15 06:30N 63°45' W 051°36'  
2018-Jun-12 14:44N 63°26' W 051°31'312.5
2018-Jun-12 14:31N 63°29' W 051°33'1512.4
2018-Jun-12 13:17N 63°44' W 051°36'412.9
2018-Jun-12 12:58N 63°48' W 051°35'612.8
2018-Jun-12 12:30N 63°54' W 051°34'612.4
2018-Jun-12 12:00N 63°59' W 051°40'612.4
2018-Jun-12 11:30N 64°05' W 051°39'510.5
2018-Jun-12 11:00N 64°10' W 051°43'0 0.0
2018-Jun-12 10:30N 64°10' W 051°43'0 0.0
2018-Jun-12 10:01N 64°10' W 051°43'0 0.0
2018-Jun-12 09:30N 64°10' W 051°43'0 0.0
2018-Jun-12 09:00N 64°10' W 051°43'2 4.1
2018-Jun-12 08:30N 64°09' W 051°47'510.2
2018-Jun-12 08:00N 64°06' W 051°57'611.2
2018-Jun-12 07:30N 64°04' W 052°08'  
Track history (hours):
 
Tides and Currents Weather Stations Pressure Air Temp Water Temp Dewpoint Dewpoint Depression Visibility Wind Speed Wind Dir Waves Ship Positions

Sarfaq Ittuk

Last reported at 2018-Jun-22 07:27 UTC. Time now 2018-Jun-22 07:42 UTC.
Position N 63°55' W 051°33'.

Length 73 m; beam 11.1 m; draft 3.7 m.

Type: Passenger vessel. MMSI: 331000499.

Date/timePositionNaut miles runAvg speedWind from/ knotsBaromVisibWave heightAir tempDewpointWater temp
2018-Jun-22 07:27N 63°55' W 051°33'4 9.3
2018-Jun-22 07:00N 63°51' W 051°34'5 9.2
2018-Jun-22 06:30N 63°46' W 051°35'  
2018-Jun-19 14:42N 63°29' W 051°33'312.3
2018-Jun-19 14:29N 63°31' W 051°36'1312.0
2018-Jun-19 13:25N 63°44' W 051°36'512.3
2018-Jun-19 13:01N 63°49' W 051°35'612.3
2018-Jun-19 12:29N 63°55' W 051°33'611.9
2018-Jun-19 12:00N 63°60' W 051°41'611.2
2018-Jun-19 11:30N 64°06' W 051°39'510.1
2018-Jun-19 11:00N 64°10' W 051°43'0 0.0
2018-Jun-19 10:30N 64°10' W 051°43'0 0.0
2018-Jun-19 10:00N 64°10' W 051°43'0 0.0
2018-Jun-19 09:30N 64°10' W 051°43'0 0.0
2018-Jun-19 09:00N 64°10' W 051°43'2 3.8
2018-Jun-19 08:30N 64°09' W 051°46'5 9.2
2018-Jun-19 08:00N 64°07' W 051°56'5 9.7
2018-Jun-19 07:30N 64°04' W 052°05'4 8.5
2018-Jun-19 07:00N 64°06' W 052°14'612.1
2018-Jun-19 06:30N 64°11' W 052°22'612.7
2018-Jun-19 06:00N 64°17' W 052°26'612.8
2018-Jun-19 05:30N 64°23' W 052°30'612.8
2018-Jun-19 05:01N 64°30' W 052°33'612.9
2018-Jun-19 04:30N 64°36' W 052°36'612.8
2018-Jun-19 04:00N 64°42' W 052°38'612.8
2018-Jun-19 03:30N 64°49' W 052°41'612.7
2018-Jun-19 03:00N 64°55' W 052°44'612.7
2018-Jun-19 02:30N 65°01' W 052°47'612.7
2018-Jun-19 02:00N 65°07' W 052°50'612.6
2018-Jun-19 01:30N 65°14' W 052°51'612.7
2018-Jun-19 01:00N 65°20' W 052°51'5 9.9
2018-Jun-19 00:30N 65°25' W 052°54'0 0.0
2018-Jun-19 00:00N 65°25' W 052°54'0 0.0
2018-Jun-18 23:30N 65°25' W 052°54'3 5.9
2018-Jun-18 23:00N 65°27' W 052°52'612.8
2018-Jun-18 22:30N 65°34' W 052°50'1410.1
2018-Jun-18 21:09N 65°40' W 053°20'212.1
2018-Jun-18 21:00N 65°42' W 053°20'12 5.6
2018-Jun-18 18:56N 65°52' W 053°32'1312.4
2018-Jun-18 17:54N 66°03' W 053°48'14 0.3
2018-Jun-16 14:03N 65°52' W 053°29'5 5.8
2018-Jun-16 13:09N 65°49' W 053°19'16 8.5
2018-Jun-16 11:19N 65°39' W 052°50'14 6.7
2018-Jun-16 09:14N 65°25' W 052°54'11 5.8
2018-Jun-16 07:24N 65°14' W 052°51'4 9.1
2018-Jun-16 06:58N 65°10' W 052°51'510.2
2018-Jun-16 06:30N 65°06' W 052°49'510.2
2018-Jun-16 06:00N 65°01' W 052°47'510.2
2018-Jun-16 05:30N 64°56' W 052°45'510.5
2018-Jun-16 05:00N 64°50' W 052°42'510.3
2018-Jun-16 04:30N 64°45' W 052°40'5 9.7
2018-Jun-16 04:00N 64°41' W 052°38'5 9.7
2018-Jun-16 03:30N 64°36' W 052°36'5 9.9
2018-Jun-16 03:00N 64°31' W 052°34'510.2
2018-Jun-16 02:30N 64°26' W 052°31'510.9
2018-Jun-16 02:00N 64°21' W 052°28'510.9
2018-Jun-16 01:30N 64°15' W 052°25'611.0
2018-Jun-16 01:00N 64°10' W 052°22'611.2
2018-Jun-16 00:30N 64°06' W 052°14'4 8.8
2018-Jun-16 00:00N 64°05' W 052°04'611.5
2018-Jun-15 23:30N 64°08' W 051°52'5 9.5
2018-Jun-15 23:00N 64°10' W 051°43'0 0.0
2018-Jun-15 22:25N 64°10' W 051°43'0 0.0
2018-Jun-15 22:00N 64°10' W 051°43'0 0.0
2018-Jun-15 21:30N 64°10' W 051°43'0 0.0
2018-Jun-15 21:00N 64°10' W 051°43'0 0.0
2018-Jun-15 20:30N 64°10' W 051°43'0 0.0
2018-Jun-15 20:00N 64°10' W 051°43'0 0.0
2018-Jun-15 19:30N 64°10' W 051°43'0 0.0
2018-Jun-15 19:00N 64°10' W 051°43'0 0.0
2018-Jun-15 18:30N 64°10' W 051°43'0 0.0
2018-Jun-15 18:00N 64°10' W 051°43'0 0.0
2018-Jun-15 17:30N 64°10' W 051°43'0 0.0
2018-Jun-15 17:01N 64°10' W 051°43'0 0.0
2018-Jun-15 16:30N 64°10' W 051°43'0 0.0
2018-Jun-15 16:00N 64°10' W 051°43'0 0.0
2018-Jun-15 15:30N 64°10' W 051°43'0 0.0
2018-Jun-15 15:00N 64°10' W 051°43'0 0.0
2018-Jun-15 14:30N 64°10' W 051°43'0 0.0
2018-Jun-15 14:00N 64°10' W 051°43'0 0.0
2018-Jun-15 13:30N 64°10' W 051°43'0 0.0
2018-Jun-15 13:00N 64°10' W 051°43'0 0.0
2018-Jun-15 12:30N 64°10' W 051°43'0 0.0
2018-Jun-15 12:00N 64°10' W 051°43'0 0.0
2018-Jun-15 11:30N 64°10' W 051°43'0 0.0
2018-Jun-15 11:00N 64°10' W 051°43'0 0.0
2018-Jun-15 10:31N 64°10' W 051°43'0 0.0
2018-Jun-15 10:00N 64°10' W 051°43'0 0.0
2018-Jun-15 09:30N 64°10' W 051°43'2 4.2
2018-Jun-15 09:00N 64°08' W 051°41'5 9.3
2018-Jun-15 08:30N 64°04' W 051°38'5 9.8
2018-Jun-15 08:00N 63°59' W 051°40'510.2
2018-Jun-15 07:29N 63°55' W 051°33'5 9.8
2018-Jun-15 07:00N 63°50' W 051°35'5 9.8
2018-Jun-15 06:30N 63°45' W 051°36'  
2018-Jun-12 14:44N 63°26' W 051°31'312.5
2018-Jun-12 14:31N 63°29' W 051°33'1512.4
2018-Jun-12 13:17N 63°44' W 051°36'412.9
2018-Jun-12 12:58N 63°48' W 051°35'612.8
2018-Jun-12 12:30N 63°54' W 051°34'612.4
2018-Jun-12 12:00N 63°59' W 051°40'612.4
2018-Jun-12 11:30N 64°05' W 051°39'510.5
2018-Jun-12 11:00N 64°10' W 051°43'0 0.0
2018-Jun-12 10:30N 64°10' W 051°43'0 0.0
2018-Jun-12 10:01N 64°10' W 051°43'0 0.0
2018-Jun-12 09:30N 64°10' W 051°43'0 0.0
2018-Jun-12 09:00N 64°10' W 051°43'2 4.1
2018-Jun-12 08:30N 64°09' W 051°47'510.2
2018-Jun-12 08:00N 64°06' W 051°57'611.2
2018-Jun-12 07:30N 64°04' W 052°08'  

Dump ship's entire track history